Time;durP1;ratioP1;P1;durP2;ratioP2;P2;SDS_P1;SDS_P2;PMS_P1;PMS_P2;Temp;Humidity;BMP_temperature;BMP_pressure;BME280_temperature;BME280_humidity;BME280_pressure;Samples;Min_cycle;Max_cycle;Signal;HPM_P1;HPM_P2
2022/09/28 00:00:54;;;;;;;23.38;12.15;;;8.80;92.20;;;;;;5094992;28;20073;-40
2022/09/28 00:03:19;;;;;;;21.55;12.05;;;8.80;92.30;;;;;;5094619;28;20028;-39
2022/09/28 00:05:45;;;;;;;25.88;13.27;;;8.80;92.30;;;;;;5094606;28;20108;-39
2022/09/28 00:08:11;;;;;;;27.88;13.73;;;8.80;92.30;;;;;;5094332;28;20047;-39
2022/09/28 00:10:36;;;;;;;26.80;14.10;;;8.80;92.40;;;;;;5094184;28;20027;-38
2022/09/28 00:13:02;;;;;;;30.48;14.18;;;8.80;92.30;;;;;;5094376;28;20055;-39
2022/09/28 00:15:28;;;;;;;27.15;13.40;;;8.80;92.50;;;;;;5094155;28;20110;-38
2022/09/28 00:17:53;;;;;;;29.63;14.18;;;8.80;92.50;;;;;;5094214;28;20024;-39
2022/09/28 00:20:21;;;;;;;21.75;11.93;;;8.80;92.50;;;;;;5094570;28;20016;-38
2022/09/28 00:22:46;;;;;;;22.20;11.68;;;8.70;92.40;;;;;;5094423;28;20023;-38
2022/09/28 00:25:12;;;;;;;24.02;13.05;;;8.70;92.40;;;;;;5092978;28;20090;-38
2022/09/28 00:27:37;;;;;;;30.38;13.23;;;8.70;92.40;;;;;;5092648;28;20067;-38
2022/09/28 00:30:03;;;;;;;21.77;12.07;;;8.60;92.30;;;;;;5093796;28;20032;-38
2022/09/28 00:32:29;;;;;;;20.70;11.32;;;8.60;92.40;;;;;;5093833;28;20044;-40
2022/09/28 00:34:55;;;;;;;19.77;11.57;;;8.50;92.40;;;;;;5092537;28;20031;-39
2022/09/28 00:37:20;;;;;;;22.35;11.75;;;8.40;92.60;;;;;;5094087;28;20016;-39
2022/09/28 00:39:47;;;;;;;17.42;10.93;;;8.40;92.70;;;;;;5093686;28;20070;-37
2022/09/28 00:42:18;;;;;;;19.08;11.60;;;8.40;92.60;;;;;;5093503;28;20024;-38
2022/09/28 00:44:58;;;;;;;22.65;11.70;;;8.30;92.70;;;;;;5093918;28;20016;-39
2022/09/28 00:47:32;;;;;;;22.65;11.73;;;8.30;92.80;;;;;;5093284;28;20467;-39
2022/09/28 00:50:07;;;;;;;21.20;11.48;;;8.30;92.80;;;;;;5094268;28;20031;-37
2022/09/28 00:52:39;;;;;;;16.92;10.73;;;8.40;92.80;;;;;;5093585;28;20067;-39
2022/09/28 00:55:10;;;;;;;20.73;9.77;;;8.40;92.80;;;;;;5094308;28;20028;-39
2022/09/28 00:57:38;;;;;;;20.33;11.18;;;8.30;92.60;;;;;;5093609;28;20016;-38
2022/09/28 01:00:05;;;;;;;25.27;11.73;;;8.40;92.70;;;;;;5093445;28;20031;-40
2022/09/28 01:02:30;;;;;;;17.63;9.98;;;8.40;92.60;;;;;;5093216;28;20035;-38
2022/09/28 01:04:57;;;;;;;18.95;10.07;;;8.50;92.40;;;;;;5093491;28;20028;-38
2022/09/28 01:07:23;;;;;;;20.33;9.70;;;8.40;92.30;;;;;;5093371;28;20020;-38
2022/09/28 01:09:49;;;;;;;20.70;10.85;;;8.50;92.20;;;;;;5091852;28;20498;-38
2022/09/28 01:12:15;;;;;;;19.60;10.65;;;8.50;92.10;;;;;;5093095;28;20116;-38
2022/09/28 01:14:42;;;;;;;16.75;10.57;;;8.50;92.10;;;;;;5091796;28;20115;-38
2022/09/28 01:17:24;;;;;;;19.15;8.75;;;8.40;91.90;;;;;;5093244;28;20031;-38
2022/09/28 01:20:04;;;;;;;14.45;7.85;;;8.40;92.10;;;;;;5092994;28;20024;-39
2022/09/28 01:22:59;;;;;;;14.70;8.73;;;8.40;91.90;;;;;;5091965;28;20027;-39
2022/09/28 01:25:37;;;;;;;9.60;6.82;;;8.40;91.90;;;;;;5093312;28;20024;-39
2022/09/28 01:28:26;;;;;;;15.20;7.40;;;8.40;91.80;;;;;;5092858;28;20103;-38
2022/09/28 01:30:55;;;;;;;12.98;6.95;;;8.30;91.90;;;;;;5093202;28;20099;-38
2022/09/28 01:33:30;;;;;;;10.05;6.35;;;8.20;92.00;;;;;;5092712;28;20048;-38
2022/09/28 01:36:01;;;;;;;12.63;7.35;;;8.20;92.20;;;;;;5092995;28;20017;-38
2022/09/28 01:38:40;;;;;;;12.32;7.65;;;8.30;92.20;;;;;;5092970;28;20020;-39
2022/09/28 01:41:08;;;;;;;12.63;7.88;;;8.30;92.00;;;;;;5091543;28;20087;-39
2022/09/28 01:43:38;;;;;;;13.25;8.38;;;8.30;92.00;;;;;;5092943;28;20020;-38
2022/09/28 01:46:40;;;;;;;16.15;7.20;;;8.30;92.10;;;;;;5093112;28;20054;-38
2022/09/28 01:49:18;;;;;;;14.30;7.90;;;8.40;92.20;;;;;;5070333;28;20035;-38
2022/09/28 01:51:58;;;;;;;15.63;8.20;;;8.50;92.00;;;;;;5092795;28;20032;-38
2022/09/28 01:54:49;;;;;;;13.70;7.47;;;8.40;91.70;;;;;;5093833;28;20456;-39
2022/09/28 01:57:38;;;;;;;12.93;8.15;;;8.40;91.90;;;;;;5086388;28;20028;-39
2022/09/28 02:00:07;;;;;;;12.82;8.30;;;8.40;92.10;;;;;;5096349;28;20028;-39
2022/09/28 02:02:40;;;;;;;15.82;9.32;;;8.60;91.80;;;;;;5096685;28;20043;-39
2022/09/28 02:05:17;;;;;;;13.52;8.27;;;8.60;91.50;;;;;;5097008;28;20456;-38
2022/09/28 02:08:14;;;;;;;12.82;8.35;;;8.40;91.80;;;;;;5096662;28;20024;-38
2022/09/28 02:10:48;;;;;;;12.27;8.25;;;8.50;92.20;;;;;;5096544;28;20020;-38
2022/09/28 02:13:39;;;;;;;18.65;9.10;;;8.60;91.90;;;;;;5096756;28;20239;-38
2022/09/28 02:16:07;;;;;;;18.15;10.57;;;8.60;91.70;;;;;;5093434;28;20032;-38
2022/09/28 02:18:33;;;;;;;14.57;9.38;;;8.60;92.00;;;;;;5096491;28;20020;-38
2022/09/28 02:21:14;;;;;;;16.05;10.32;;;8.70;91.90;;;;;;5096365;28;20023;-40
2022/09/28 02:23:50;;;;;;;18.98;10.68;;;8.40;91.60;;;;;;5096304;28;20024;-37
2022/09/28 02:26:19;;;;;;;17.80;11.07;;;8.40;92.00;;;;;;5095944;28;20028;-41
2022/09/28 02:28:45;;;;;;;20.70;12.80;;;8.40;91.80;;;;;;5094426;28;20024;-39
2022/09/28 02:31:11;;;;;;;23.52;13.50;;;8.40;91.70;;;;;;5096333;28;20576;-40
2022/09/28 02:33:40;;;;;;;23.45;14.82;;;8.50;91.70;;;;;;5095352;28;20047;-37
2022/09/28 02:36:06;;;;;;;22.25;14.35;;;8.40;91.40;;;;;;5095935;28;20145;-37
2022/09/28 02:38:31;;;;;;;22.25;14.43;;;8.40;91.40;;;;;;5095991;28;20525;-38
2022/09/28 02:41:07;;;;;;;19.05;12.18;;;8.40;91.30;;;;;;5095525;28;20047;-38
2022/09/28 02:43:39;;;;;;;21.10;11.35;;;8.30;91.20;;;;;;5095750;28;20027;-38
2022/09/28 02:46:27;;;;;;;16.90;11.82;;;8.30;91.20;;;;;;5094349;28;20036;-38
2022/09/28 02:49:18;;;;;;;15.85;10.40;;;8.20;91.00;;;;;;5095927;28;20537;-38
2022/09/28 02:52:12;;;;;;;17.80;12.30;;;8.20;91.10;;;;;;5092900;28;20134;-38
2022/09/28 02:54:56;;;;;;;19.52;12.70;;;8.30;91.10;;;;;;5095352;28;20046;-38
2022/09/28 02:57:40;;;;;;;18.25;11.80;;;8.30;90.80;;;;;;5095755;28;20093;-38
2022/09/28 03:00:10;;;;;;;19.42;12.18;;;8.30;91.10;;;;;;5095541;28;20032;-39
2022/09/28 03:02:51;;;;;;;19.70;12.13;;;8.30;91.00;;;;;;5095640;28;20024;-39
2022/09/28 03:06:02;;;;;;;16.75;11.32;;;8.40;91.10;;;;;;5094777;28;20371;-39
2022/09/28 03:08:43;;;;;;;17.73;11.38;;;8.30;91.10;;;;;;5094047;28;20032;-37
2022/09/28 03:11:29;;;;;;;17.98;11.45;;;8.30;91.20;;;;;;5095501;28;20048;-39
2022/09/28 03:13:55;;;;;;;18.00;12.10;;;8.50;91.00;;;;;;5094835;28;20036;-40
2022/09/28 03:16:21;;;;;;;16.63;11.75;;;8.40;90.80;;;;;;5095525;28;20540;-38
2022/09/28 03:18:47;;;;;;;18.48;12.95;;;8.40;90.80;;;;;;5095741;28;20020;-39
2022/09/28 03:21:14;;;;;;;21.88;12.27;;;8.40;90.80;;;;;;5095572;28;20498;-38
2022/09/28 03:23:40;;;;;;;18.38;11.95;;;8.30;90.80;;;;;;5095392;28;20484;-38
2022/09/28 03:26:07;;;;;;;20.60;11.70;;;8.30;91.00;;;;;;5095552;28;20379;-39
2022/09/28 03:28:35;;;;;;;20.08;12.02;;;8.30;91.00;;;;;;5095661;28;20533;-39
2022/09/28 03:31:01;;;;;;;23.02;11.13;;;8.30;91.00;;;;;;5095663;28;20029;-38
2022/09/28 03:33:27;;;;;;;19.00;10.85;;;8.30;91.00;;;;;;5095581;28;20462;-40
2022/09/28 03:35:52;;;;;;;21.10;11.43;;;8.40;90.90;;;;;;5093936;28;20024;-39
2022/09/28 03:38:19;;;;;;;17.10;10.80;;;8.30;91.00;;;;;;5095262;28;20016;-38
2022/09/28 03:40:55;;;;;;;15.30;11.30;;;8.30;91.00;;;;;;5095025;28;20054;-38
2022/09/28 03:43:21;;;;;;;16.75;11.20;;;8.20;91.20;;;;;;5093775;28;20088;-38
2022/09/28 03:45:58;;;;;;;16.00;11.23;;;8.30;91.00;;;;;;5095306;28;20059;-38
2022/09/28 03:48:26;;;;;;;19.00;12.52;;;8.40;91.00;;;;;;5093523;28;20024;-38
2022/09/28 03:50:57;;;;;;;19.48;11.98;;;8.30;90.60;;;;;;5094843;28;20024;-38
2022/09/28 03:53:23;;;;;;;22.33;13.32;;;8.40;90.70;;;;;;5095186;28;20073;-38
2022/09/28 03:55:49;;;;;;;18.15;12.13;;;8.30;90.50;;;;;;5095433;28;20032;-39
2022/09/28 03:58:16;;;;;;;18.63;11.65;;;8.30;90.70;;;;;;5093345;28;20020;-38
2022/09/28 04:00:42;;;;;;;22.27;13.20;;;8.40;90.90;;;;;;5093793;28;20435;-38
2022/09/28 04:03:08;;;;;;;19.40;13.20;;;8.40;90.90;;;;;;5095186;28;20108;-39
2022/09/28 04:05:33;;;;;;;18.70;12.20;;;8.50;90.60;;;;;;5094795;28;20038;-39
2022/09/28 04:07:59;;;;;;;20.30;12.90;;;8.40;90.60;;;;;;5094517;28;20094;-39
2022/09/28 04:10:25;;;;;;;18.67;12.30;;;8.50;91.00;;;;;;5094373;28;20034;-39
2022/09/28 04:12:57;;;;;;;24.58;13.23;;;8.40;90.90;;;;;;5094289;28;20024;-39
2022/09/28 04:15:23;;;;;;;18.67;12.40;;;8.40;91.00;;;;;;5094411;28;20035;-39
2022/09/28 04:17:50;;;;;;;23.08;14.05;;;8.40;91.10;;;;;;5093848;28;20024;-38
2022/09/28 04:20:16;;;;;;;21.80;12.90;;;8.40;91.00;;;;;;5094234;28;20047;-38
2022/09/28 04:22:42;;;;;;;20.92;14.13;;;8.50;91.10;;;;;;5094117;28;20024;-38
2022/09/28 04:25:08;;;;;;;21.70;14.13;;;8.50;91.00;;;;;;5094082;28;20039;-40
2022/09/28 04:30:17;;;;;;;24.10;13.85;;;8.50;90.60;;;;;;5094186;28;20073;-40
2022/09/28 04:32:45;;;;;;;25.27;14.00;;;8.50;91.10;;;;;;5093445;28;20458;-38
2022/09/28 04:35:11;;;;;;;23.88;15.20;;;8.30;91.10;;;;;;5093702;28;20027;-39
2022/09/28 04:37:37;;;;;;;23.30;15.13;;;8.40;91.30;;;;;;5093953;28;20024;-39
2022/09/28 04:40:03;;;;;;;22.52;15.77;;;8.30;91.50;;;;;;5093606;28;20365;-38
2022/09/28 04:42:28;;;;;;;27.33;16.42;;;8.40;91.50;;;;;;5093676;28;20020;-44
2022/09/28 04:44:56;;;;;;;22.50;15.52;;;8.30;91.50;;;;;;5093630;28;20120;-39
2022/09/28 04:47:22;;;;;;;26.88;15.93;;;8.30;91.50;;;;;;5093635;28;20130;-39
2022/09/28 04:49:47;;;;;;;31.15;17.30;;;8.40;91.70;;;;;;5093583;28;20062;-39
2022/09/28 04:52:13;;;;;;;25.55;16.42;;;8.30;91.60;;;;;;5092326;28;20111;-39
2022/09/28 04:54:39;;;;;;;35.13;18.38;;;8.30;91.70;;;;;;5093698;28;20020;-39
2022/09/28 04:57:04;;;;;;;31.70;18.10;;;8.30;91.80;;;;;;5092117;28;20495;-38
2022/09/28 04:59:30;;;;;;;29.60;18.58;;;8.40;91.70;;;;;;5093811;28;20020;-39
2022/09/28 05:01:56;;;;;;;29.80;18.90;;;8.40;91.70;;;;;;5092124;28;20020;-38
2022/09/28 05:04:22;;;;;;;33.83;17.90;;;8.50;91.70;;;;;;5093326;28;20024;-38
2022/09/28 05:06:48;;;;;;;34.30;19.50;;;8.30;91.40;;;;;;5093564;28;20040;-38
2022/09/28 05:09:13;;;;;;;35.53;19.77;;;8.30;91.60;;;;;;5093564;28;20390;-38
2022/09/28 05:11:39;;;;;;;37.55;21.38;;;8.50;91.60;;;;;;5092367;28;20024;-38
2022/09/28 05:14:05;;;;;;;38.90;23.48;;;8.40;91.40;;;;;;5093610;28;20035;-38
2022/09/28 05:16:32;;;;;;;40.78;23.30;;;8.40;91.20;;;;;;5091925;28;20508;-38
2022/09/28 05:18:58;;;;;;;32.35;20.50;;;8.40;91.30;;;;;;5093220;28;20032;-38
2022/09/28 17:31:47;;;;;;;8.68;2.70;;;10.80;82.80;;;;;;5070560;28;20605;-39
2022/09/28 17:34:14;;;;;;;4.15;2.60;;;10.90;82.80;;;;;;5070492;28;20453;-40
2022/09/28 17:36:41;;;;;;;4.15;2.42;;;10.90;82.60;;;;;;5070141;28;20517;-39
2022/09/28 17:39:16;;;;;;;6.05;2.45;;;10.90;82.30;;;;;;5070281;28;20029;-39
2022/09/28 17:41:42;;;;;;;5.13;2.35;;;10.90;82.20;;;;;;5069835;28;20469;-40
2022/09/28 17:44:08;;;;;;;3.63;2.13;;;10.90;82.50;;;;;;5069628;28;20116;-40
2022/09/28 17:46:48;;;;;;;5.68;2.83;;;10.80;82.60;;;;;;5068931;28;20021;-41
2022/09/28 17:49:14;;;;;;;;;;;10.90;82.30;;;;;;5069457;28;20157;-40
2022/09/28 17:51:40;;;;;;;7.50;2.55;;;10.90;82.40;;;;;;5070092;28;20353;-39
2022/09/28 17:54:06;;;;;;;5.80;3.10;;;10.80;83.00;;;;;;5070419;28;20514;-39
2022/09/28 17:56:33;;;;;;;7.68;2.92;;;10.90;82.80;;;;;;5068498;28;20120;-39
2022/09/28 17:59:04;;;;;;;2.95;2.17;;;10.90;82.70;;;;;;5069722;28;20099;-40
2022/09/28 18:01:32;;;;;;;6.22;2.53;;;10.90;82.40;;;;;;5069723;28;20062;-39
2022/09/28 18:04:06;;;;;;;6.40;2.92;;;11.00;82.20;;;;;;5070118;28;20377;-39
2022/09/28 18:06:32;;;;;;;7.22;3.00;;;11.00;82.50;;;;;;5069403;28;20045;-38
2022/09/28 18:08:58;;;;;;;7.05;2.65;;;10.90;82.40;;;;;;5069949;28;20117;-40
2022/09/28 18:11:24;;;;;;;5.30;3.17;;;10.80;82.70;;;;;;5069206;28;20067;-40
2022/09/28 18:13:50;;;;;;;3.97;2.70;;;10.80;82.80;;;;;;5069603;28;20056;-39
2022/09/28 18:16:16;;;;;;;7.32;2.70;;;10.80;83.10;;;;;;5069551;28;20055;-38
2022/09/28 18:18:42;;;;;;;8.23;2.90;;;10.70;83.10;;;;;;5069479;28;20017;-40
2022/09/28 18:21:09;;;;;;;8.35;2.63;;;10.80;83.30;;;;;;5069646;28;20035;-39
2022/09/28 18:23:38;;;;;;;6.10;3.03;;;10.70;83.20;;;;;;5068832;28;20116;-39
2022/09/28 18:26:12;;;;;;;3.78;2.70;;;10.70;83.10;;;;;;5069790;28;20417;-39
2022/09/28 18:28:38;;;;;;;3.08;2.22;;;10.60;83.60;;;;;;5069738;28;20024;-39
2022/09/28 18:31:08;;;;;;;7.35;2.72;;;10.60;83.80;;;;;;5084357;28;20127;-39
2022/09/28 18:33:34;;;;;;;5.05;2.75;;;10.60;83.90;;;;;;5089925;28;20020;-40
2022/09/28 18:36:00;;;;;;;12.48;2.80;;;10.40;84.20;;;;;;5089538;28;20089;-39
2022/09/28 18:38:26;;;;;;;3.50;2.85;;;10.50;84.60;;;;;;5089454;28;20059;-38
2022/09/28 18:40:53;;;;;;;7.18;2.85;;;10.40;84.40;;;;;;5088557;28;20055;-39
2022/09/28 18:43:20;;;;;;;7.28;2.70;;;10.40;84.40;;;;;;5075374;28;20032;-40
2022/09/28 18:45:46;;;;;;;5.32;3.58;;;10.30;84.60;;;;;;5057686;28;20048;-41
2022/09/28 18:48:12;;;;;;;6.75;3.35;;;10.30;85.00;;;;;;5076119;28;20056;-38
2022/09/28 18:50:40;;;;;;;8.38;5.13;;;10.30;85.00;;;;;;5057125;28;20040;-40
2022/09/28 18:53:12;;;;;;;6.18;3.10;;;10.30;85.00;;;;;;5076307;28;20074;-40
2022/09/28 18:55:43;;;;;;;6.85;3.70;;;10.20;85.30;;;;;;5057626;28;20411;-40
2022/09/28 18:58:10;;;;;;;4.40;3.00;;;10.20;85.50;;;;;;5057280;28;20059;-41
2022/09/28 19:00:40;;;;;;;4.53;3.40;;;10.10;85.40;;;;;;5075141;28;20033;-40
2022/09/28 19:03:06;;;;;;;5.30;3.15;;;10.10;85.60;;;;;;5075638;28;20031;-40
2022/09/28 19:05:33;;;;;;;6.03;3.88;;;10.00;85.60;;;;;;5075812;28;20087;-40
2022/09/28 19:07:59;;;;;;;6.40;2.45;;;10.00;85.90;;;;;;5057104;28;20020;-40
2022/09/28 19:10:25;;;;;;;7.43;2.45;;;9.90;86.30;;;;;;5075228;28;20031;-38
2022/09/28 19:12:51;;;;;;;10.20;3.05;;;9.80;86.60;;;;;;5040320;28;20384;-39
2022/09/28 19:15:19;;;;;;;8.82;3.53;;;9.80;86.70;;;;;;5075106;28;20020;-40
2022/09/28 19:17:46;;;;;;;8.40;4.63;;;9.80;87.10;;;;;;5075001;28;20074;-39
2022/09/28 19:20:12;;;;;;;7.40;3.83;;;9.70;87.30;;;;;;5074844;28;20021;-40
2022/09/28 19:22:37;;;;;;;4.47;3.13;;;9.70;87.50;;;;;;5075064;28;20475;-38
2022/09/28 19:25:03;;;;;;;4.47;3.08;;;9.70;87.50;;;;;;5074842;28;20386;-39
2022/09/28 19:27:29;;;;;;;6.00;2.50;;;9.60;87.70;;;;;;5057012;28;20028;-39
2022/09/28 19:29:54;;;;;;;3.17;2.88;;;9.40;87.90;;;;;;5074503;28;20055;-40
2022/09/28 19:32:20;;;;;;;7.13;3.33;;;9.30;88.50;;;;;;5074878;28;20021;-39
2022/09/28 19:34:46;;;;;;;5.82;2.97;;;9.30;89.00;;;;;;5074746;28;20020;-39
2022/09/28 19:37:11;;;;;;;4.50;3.10;;;9.20;89.20;;;;;;5074551;28;20357;-39
2022/09/28 19:39:37;;;;;;;11.27;4.47;;;9.20;89.20;;;;;;5074587;28;20020;-40
2022/09/28 19:42:02;;;;;;;8.02;3.72;;;9.20;89.40;;;;;;5074423;28;20024;-38
2022/09/28 19:44:30;;;;;;;7.70;3.38;;;9.10;89.50;;;;;;5074309;28;20032;-38
2022/09/28 19:46:57;;;;;;;6.60;3.53;;;9.20;89.20;;;;;;5074506;28;20020;-40
2022/09/28 19:49:24;;;;;;;8.23;4.50;;;9.20;89.00;;;;;;5074036;28;20017;-39
2022/09/28 19:51:55;;;;;;;9.45;4.10;;;9.20;89.20;;;;;;5074115;28;20103;-39
2022/09/28 19:54:21;;;;;;;6.93;4.03;;;9.20;89.20;;;;;;5073304;28;20020;-39
2022/09/28 19:56:47;;;;;;;9.00;4.38;;;9.20;89.30;;;;;;5074840;28;20037;-39
2022/09/28 19:59:14;;;;;;;7.05;5.15;;;9.20;89.00;;;;;;5056327;28;20017;-39
2022/09/28 20:01:41;;;;;;;8.40;4.93;;;9.30;89.00;;;;;;5074121;28;20028;-39
2022/09/28 20:04:07;;;;;;;7.45;5.13;;;9.20;88.90;;;;;;5056205;28;20035;-41
2022/09/28 20:06:32;;;;;;;10.30;5.72;;;9.20;89.10;;;;;;5056490;28;20043;-40
2022/09/28 20:08:58;;;;;;;12.50;6.38;;;9.10;89.40;;;;;;5074037;28;20475;-39
2022/09/28 20:11:24;;;;;;;9.50;5.82;;;9.10;89.50;;;;;;5073818;28;20358;-39
2022/09/28 20:13:52;;;;;;;11.35;5.75;;;9.00;89.50;;;;;;5074252;28;20029;-38
2022/09/28 20:16:23;;;;;;;10.43;5.60;;;9.00;89.80;;;;;;5073764;28;20033;-38
2022/09/28 20:18:50;;;;;;;10.15;6.50;;;8.90;90.00;;;;;;5073973;28;20384;-39
2022/09/28 20:21:17;;;;;;;8.90;6.15;;;8.90;90.10;;;;;;5074194;28;20024;-38
2022/09/28 20:23:44;;;;;;;9.63;6.47;;;8.80;90.20;;;;;;5073674;28;20024;-40
2022/09/28 20:26:10;;;;;;;11.77;6.47;;;8.80;90.30;;;;;;5074706;28;20029;-40
2022/09/28 20:28:37;;;;;;;11.45;5.95;;;8.80;90.20;;;;;;5073920;28;20338;-40
2022/09/28 20:31:06;;;;;;;12.15;7.10;;;8.80;90.30;;;;;;5073518;28;20044;-39
2022/09/28 20:33:33;;;;;;;12.25;7.40;;;8.80;90.30;;;;;;5073945;28;20107;-41
2022/09/28 20:36:07;;;;;;;15.38;7.95;;;8.80;90.30;;;;;;5074226;28;20435;-38
2022/09/28 20:38:34;;;;;;;12.30;6.32;;;8.70;90.50;;;;;;5075354;28;20054;-39
2022/09/28 20:41:00;;;;;;;12.38;8.18;;;8.60;90.70;;;;;;5073643;28;20032;-39
2022/09/28 20:43:28;;;;;;;14.98;7.10;;;8.50;90.70;;;;;;5073426;28;20054;-38
2022/09/28 20:45:55;;;;;;;11.70;7.65;;;8.50;90.90;;;;;;5055480;28;20549;-38
2022/09/28 20:48:20;;;;;;;10.98;6.43;;;8.60;91.00;;;;;;5073656;28;20079;-40
2022/09/28 20:50:46;;;;;;;13.75;6.70;;;8.60;91.10;;;;;;5055508;28;20028;-39
2022/09/28 20:53:11;;;;;;;15.10;6.05;;;8.60;91.10;;;;;;5073395;28;20025;-39
2022/09/28 20:55:37;;;;;;;9.18;6.18;;;8.50;91.00;;;;;;5073423;28;20028;-39
2022/09/28 20:58:03;;;;;;;10.75;5.97;;;8.60;91.10;;;;;;5073346;28;20074;-40
2022/09/28 21:00:29;;;;;;;10.35;6.25;;;8.60;91.00;;;;;;5055203;28;20024;-39
2022/09/28 21:02:55;;;;;;;11.77;6.00;;;8.50;90.90;;;;;;5073230;28;20024;-39
2022/09/28 21:05:20;;;;;;;9.90;5.68;;;8.60;90.90;;;;;;5073006;28;20028;-39
2022/09/28 21:07:46;;;;;;;12.93;6.95;;;8.60;90.70;;;;;;5073226;28;20024;-40
2022/09/28 21:10:12;;;;;;;11.82;7.75;;;8.50;90.60;;;;;;5073361;28;20031;-39
2022/09/28 21:12:38;;;;;;;10.70;7.38;;;8.50;90.60;;;;;;5073574;28;20098;-38
2022/09/28 21:15:05;;;;;;;8.65;5.90;;;8.50;90.60;;;;;;5073367;28;20025;-39
2022/09/28 21:17:31;;;;;;;6.80;4.80;;;8.50;90.70;;;;;;5073116;28;20520;-39
2022/09/28 21:19:56;;;;;;;10.80;5.82;;;8.50;90.60;;;;;;5055116;28;20032;-39
2022/09/28 21:22:22;;;;;;;12.20;5.65;;;8.50;90.60;;;;;;5073152;28;20127;-39
2022/09/28 21:24:48;;;;;;;9.63;6.57;;;8.40;90.70;;;;;;5073438;28;20021;-38
2022/09/28 21:27:13;;;;;;;12.98;6.90;;;8.40;90.70;;;;;;5073296;28;20078;-39
2022/09/28 21:29:39;;;;;;;10.13;6.82;;;8.30;90.90;;;;;;5072698;28;20056;-40
2022/09/28 21:32:04;;;;;;;11.73;6.45;;;8.40;91.00;;;;;;5073473;28;20029;-39
2022/09/28 21:34:31;;;;;;;8.85;6.43;;;8.50;90.90;;;;;;5073400;28;20445;-39
2022/09/28 21:36:56;;;;;;;11.88;7.80;;;8.40;90.80;;;;;;5072722;28;20029;-38
2022/09/28 21:39:22;;;;;;;15.35;7.93;;;8.60;90.80;;;;;;5072760;28;20028;-38
2022/09/28 21:41:48;;;;;;;11.25;7.15;;;8.50;90.80;;;;;;5072694;28;20025;-39
2022/09/28 21:44:13;;;;;;;10.90;7.05;;;8.50;90.80;;;;;;5072823;28;20052;-40
2022/09/28 21:46:39;;;;;;;14.82;7.68;;;8.50;90.80;;;;;;5055251;28;20499;-38
2022/09/28 21:49:06;;;;;;;13.30;7.40;;;8.50;90.70;;;;;;5072734;28;20033;-39
2022/09/28 21:51:33;;;;;;;8.75;6.05;;;8.50;90.80;;;;;;5072541;28;20356;-38
2022/09/28 21:53:59;;;;;;;15.07;7.07;;;8.40;90.70;;;;;;5072642;28;20425;-39
2022/09/28 21:56:25;;;;;;;14.55;6.93;;;8.40;90.70;;;;;;5072174;28;20028;-38
2022/09/28 21:58:51;;;;;;;12.68;7.57;;;8.40;90.80;;;;;;5072328;28;20124;-38
2022/09/28 22:01:20;;;;;;;11.73;6.63;;;8.30;90.90;;;;;;5072362;28;20033;-38
2022/09/28 22:03:49;;;;;;;10.57;6.75;;;8.30;90.90;;;;;;5072141;28;20508;-39
2022/09/28 22:06:17;;;;;;;9.15;7.07;;;8.30;90.90;;;;;;5072042;28;20078;-38
2022/09/28 22:08:43;;;;;;;10.82;7.18;;;8.30;91.10;;;;;;5072044;28;20025;-38
2022/09/28 22:11:11;;;;;;;14.80;7.30;;;8.30;91.10;;;;;;5072219;28;20115;-38
2022/09/28 22:13:42;;;;;;;14.63;7.05;;;8.20;91.20;;;;;;5072043;28;20528;-38
2022/09/28 22:16:10;;;;;;;11.88;7.55;;;8.20;91.30;;;;;;5072272;28;20021;-39
2022/09/28 22:18:36;;;;;;;10.00;7.15;;;8.20;91.40;;;;;;5075829;28;20497;-38
2022/09/28 22:21:09;;;;;;;10.10;7.30;;;8.20;91.40;;;;;;5075792;28;20224;-38
2022/09/28 22:23:36;;;;;;;14.38;8.07;;;8.20;91.50;;;;;;5075966;28;20166;-40
2022/09/28 22:26:11;;;;;;;10.90;7.47;;;8.10;91.50;;;;;;5075900;28;20028;-40
2022/09/28 22:28:41;;;;;;;8.18;6.75;;;8.20;91.70;;;;;;5075982;28;20039;-45
2022/09/28 22:31:09;;;;;;;13.93;6.60;;;8.00;91.50;;;;;;5076106;28;20490;-42
2022/09/28 22:33:35;;;;;;;12.80;6.55;;;8.00;91.50;;;;;;5076196;28;20020;-39
2022/09/28 22:36:01;;;;;;;10.55;7.35;;;7.90;91.60;;;;;;5075550;28;20126;-39
2022/09/28 22:38:31;;;;;;;9.70;6.88;;;7.80;91.70;;;;;;5075467;28;20096;-39
2022/09/28 22:40:57;;;;;;;12.77;7.43;;;7.90;91.90;;;;;;5057240;28;20534;-38
2022/09/28 22:43:24;;;;;;;9.05;7.63;;;7.90;92.00;;;;;;5075738;28;20025;-39
2022/09/28 22:46:09;;;;;;;11.15;8.27;;;7.90;92.10;;;;;;5075336;28;20056;-39
2022/09/28 22:48:36;;;;;;;12.02;8.43;;;7.80;92.10;;;;;;5075682;28;20374;-39
2022/09/28 22:51:05;;;;;;;13.45;8.65;;;7.90;92.10;;;;;;5075486;28;20035;-39
2022/09/28 22:53:31;;;;;;;17.73;8.48;;;7.90;92.10;;;;;;5075459;28;20392;-39
2022/09/28 22:55:59;;;;;;;17.20;9.30;;;7.90;92.20;;;;;;5075285;28;20440;-39
2022/09/28 22:58:25;;;;;;;16.33;8.77;;;7.80;92.10;;;;;;5057615;28;20028;-39
2022/09/28 23:00:51;;;;;;;14.57;8.70;;;7.80;92.10;;;;;;5076329;28;20032;-39
2022/09/28 23:03:17;;;;;;;13.18;9.38;;;7.80;92.20;;;;;;5059251;28;20123;-39
2022/09/28 23:05:55;;;;;;;14.13;8.55;;;7.80;92.20;;;;;;5075133;28;20025;-39
2022/09/28 23:08:22;;;;;;;14.68;9.02;;;7.70;92.10;;;;;;5075178;28;20104;-39
2022/09/28 23:10:49;;;;;;;10.93;7.97;;;7.70;92.20;;;;;;5074972;28;20036;-39
2022/09/28 23:13:15;;;;;;;14.25;9.25;;;7.70;92.40;;;;;;5075333;28;20481;-39
2022/09/28 23:15:40;;;;;;;14.18;8.23;;;7.60;92.30;;;;;;5075022;28;20135;-39
2022/09/28 23:18:07;;;;;;;11.65;8.10;;;7.60;92.30;;;;;;5075070;28;20477;-39
2022/09/28 23:20:33;;;;;;;13.02;8.77;;;7.50;92.30;;;;;;5075238;28;20028;-39
2022/09/28 23:22:59;;;;;;;18.33;8.85;;;7.50;92.30;;;;;;5075256;28;20021;-39
2022/09/28 23:25:25;;;;;;;13.73;9.02;;;7.50;92.50;;;;;;5074918;28;20043;-39
2022/09/28 23:27:50;;;;;;;14.43;8.95;;;7.50;92.60;;;;;;5074697;28;20036;-39
2022/09/28 23:30:18;;;;;;;20.00;9.90;;;7.50;92.60;;;;;;5074387;28;20496;-39
2022/09/28 23:32:44;;;;;;;13.75;10.32;;;7.60;92.80;;;;;;5074992;28;20481;-39
2022/09/28 23:35:10;;;;;;;17.00;10.77;;;7.60;92.80;;;;;;5074568;28;20021;-38
2022/09/28 23:37:36;;;;;;;14.20;9.82;;;7.60;92.80;;;;;;5074817;28;20124;-39
2022/09/28 23:40:04;;;;;;;12.63;8.90;;;7.60;92.70;;;;;;5074708;28;20024;-38
2022/09/28 23:42:29;;;;;;;18.27;10.10;;;7.50;92.70;;;;;;5074491;28;20460;-38
2022/09/28 23:44:55;;;;;;;14.10;9.93;;;7.50;92.70;;;;;;5074450;28;20035;-40
2022/09/28 23:47:21;;;;;;;15.32;10.38;;;7.40;92.70;;;;;;5056447;28;20119;-37
2022/09/28 23:49:46;;;;;;;24.08;11.40;;;7.40;92.70;;;;;;5056343;28;20033;-38
2022/09/28 23:52:12;;;;;;;22.60;10.80;;;7.50;92.80;;;;;;5074265;28;20384;-40
2022/09/28 23:54:38;;;;;;;20.50;10.85;;;7.50;92.90;;;;;;5074226;28;20024;-38
2022/09/28 23:57:04;;;;;;;15.93;10.73;;;7.50;92.80;;;;;;5074338;28;20021;-41
2022/09/28 23:59:29;;;;;;;16.75;11.95;;;7.50;92.80;;;;;;5056127;28;20118;-38
